sensor_id;sensor_type;location;lat;lon;timestamp;P1;durP1;ratioP1;P2;durP2;ratioP2
71366;SDS011;60030;52.274;8.040;2022-12-29T00:01:26;4.17;;;3.10;;
71366;SDS011;60030;52.274;8.040;2022-12-29T00:03:53;4.70;;;3.00;;
71366;SDS011;60030;52.274;8.040;2022-12-29T00:06:20;4.53;;;3.33;;
71366;SDS011;60030;52.274;8.040;2022-12-29T00:08:47;2.60;;;2.40;;
71366;SDS011;60030;52.274;8.040;2022-12-29T00:11:16;2.80;;;2.50;;
71366;SDS011;60030;52.274;8.040;2022-12-29T00:13:44;2.73;;;2.53;;
71366;SDS011;60030;52.274;8.040;2022-12-29T00:16:29;4.50;;;2.47;;
71366;SDS011;60030;52.274;8.040;2022-12-29T00:18:57;2.57;;;2.37;;
71366;SDS011;60030;52.274;8.040;2022-12-29T00:21:25;3.37;;;2.50;;
71366;SDS011;60030;52.274;8.040;2022-12-29T00:24:11;2.20;;;2.10;;
71366;SDS011;60030;52.274;8.040;2022-12-29T00:27:10;2.50;;;2.27;;
71366;SDS011;60030;52.274;8.040;2022-12-29T00:29:56;4.93;;;2.80;;
71366;SDS011;60030;52.274;8.040;2022-12-29T00:32:41;3.23;;;2.80;;
71366;SDS011;60030;52.274;8.040;2022-12-29T00:35:28;2.77;;;2.50;;
71366;SDS011;60030;52.274;8.040;2022-12-29T00:37:57;2.93;;;2.73;;
71366;SDS011;60030;52.274;8.040;2022-12-29T00:40:45;2.93;;;2.70;;
71366;SDS011;60030;52.274;8.040;2022-12-29T00:43:33;2.40;;;2.00;;
71366;SDS011;60030;52.274;8.040;2022-12-29T00:46:18;2.63;;;2.43;;
71366;SDS011;60030;52.274;8.040;2022-12-29T00:48:45;2.50;;;2.30;;
71366;SDS011;60030;52.274;8.040;2022-12-29T00:51:29;3.00;;;2.70;;
71366;SDS011;60030;52.274;8.040;2022-12-29T00:53:56;5.30;;;2.40;;
71366;SDS011;60030;52.274;8.040;2022-12-29T00:56:23;2.80;;;2.23;;
71366;SDS011;60030;52.274;8.040;2022-12-29T00:58:52;2.53;;;2.33;;
71366;SDS011;60030;52.274;8.040;2022-12-29T01:01:19;2.30;;;2.10;;
71366;SDS011;60030;52.274;8.040;2022-12-29T01:03:46;2.30;;;2.10;;
71366;SDS011;60030;52.274;8.040;2022-12-29T01:06:13;2.10;;;1.93;;
71366;SDS011;60030;52.274;8.040;2022-12-29T01:08:41;2.57;;;2.30;;
71366;SDS011;60030;52.274;8.040;2022-12-29T01:11:08;1.90;;;1.80;;
71366;SDS011;60030;52.274;8.040;2022-12-29T01:13:36;1.87;;;1.77;;
71366;SDS011;60030;52.274;8.040;2022-12-29T01:16:05;2.47;;;2.23;;
71366;SDS011;60030;52.274;8.040;2022-12-29T01:18:35;2.23;;;2.03;;
71366;SDS011;60030;52.274;8.040;2022-12-29T01:21:03;2.43;;;1.70;;
71366;SDS011;60030;52.274;8.040;2022-12-29T01:23:31;2.80;;;2.03;;
71366;SDS011;60030;52.274;8.040;2022-12-29T01:26:07;1.67;;;1.57;;
71366;SDS011;60030;52.274;8.040;2022-12-29T01:28:35;2.00;;;1.70;;
71366;SDS011;60030;52.274;8.040;2022-12-29T01:31:04;1.60;;;1.30;;
71366;SDS011;60030;52.274;8.040;2022-12-29T01:33:32;1.70;;;1.50;;
71366;SDS011;60030;52.274;8.040;2022-12-29T01:35:59;1.83;;;1.40;;
71366;SDS011;60030;52.274;8.040;2022-12-29T01:38:26;1.47;;;1.37;;
71366;SDS011;60030;52.274;8.040;2022-12-29T01:40:54;4.10;;;1.40;;
71366;SDS011;60030;52.274;8.040;2022-12-29T01:43:21;1.50;;;1.40;;
71366;SDS011;60030;52.274;8.040;2022-12-29T01:45:48;2.53;;;1.47;;
71366;SDS011;60030;52.274;8.040;2022-12-29T01:48:19;1.50;;;1.37;;
71366;SDS011;60030;52.274;8.040;2022-12-29T01:50:49;1.83;;;1.67;;
71366;SDS011;60030;52.274;8.040;2022-12-29T01:53:19;1.53;;;1.30;;
71366;SDS011;60030;52.274;8.040;2022-12-29T01:55:53;1.30;;;1.20;;
71366;SDS011;60030;52.274;8.040;2022-12-29T01:58:22;2.23;;;1.40;;
71366;SDS011;60030;52.274;8.040;2022-12-29T02:00:53;1.60;;;1.50;;
71366;SDS011;60030;52.274;8.040;2022-12-29T02:03:22;1.67;;;1.40;;
71366;SDS011;60030;52.274;8.040;2022-12-29T02:05:52;2.40;;;1.90;;
71366;SDS011;60030;52.274;8.040;2022-12-29T02:08:25;2.07;;;1.97;;
71366;SDS011;60030;52.274;8.040;2022-12-29T02:10:54;2.30;;;2.10;;
71366;SDS011;60030;52.274;8.040;2022-12-29T02:13:24;2.33;;;2.20;;
71366;SDS011;60030;52.274;8.040;2022-12-29T02:15:53;2.80;;;2.27;;
71366;SDS011;60030;52.274;8.040;2022-12-29T02:18:35;2.10;;;2.00;;
71366;SDS011;60030;52.274;8.040;2022-12-29T02:21:19;1.80;;;1.70;;
71366;SDS011;60030;52.274;8.040;2022-12-29T02:24:30;1.90;;;1.80;;
71366;SDS011;60030;52.274;8.040;2022-12-29T02:30:04;1.97;;;1.40;;
71366;SDS011;60030;52.274;8.040;2022-12-29T02:32:38;2.60;;;1.50;;
71366;SDS011;60030;52.274;8.040;2022-12-29T02:35:14;1.70;;;1.50;;
71366;SDS011;60030;52.274;8.040;2022-12-29T02:37:53;1.60;;;1.50;;
71366;SDS011;60030;52.274;8.040;2022-12-29T02:40:28;1.87;;;1.70;;
71366;SDS011;60030;52.274;8.040;2022-12-29T02:43:04;1.60;;;1.50;;
71366;SDS011;60030;52.274;8.040;2022-12-29T02:45:42;2.40;;;1.90;;
71366;SDS011;60030;52.274;8.040;2022-12-29T02:48:16;1.83;;;1.73;;
71366;SDS011;60030;52.274;8.040;2022-12-29T02:50:47;1.90;;;1.67;;
71366;SDS011;60030;52.274;8.040;2022-12-29T02:53:19;1.90;;;1.80;;
71366;SDS011;60030;52.274;8.040;2022-12-29T02:56:07;4.53;;;1.80;;
71366;SDS011;60030;52.274;8.040;2022-12-29T02:58:33;1.90;;;1.53;;
71366;SDS011;60030;52.274;8.040;2022-12-29T03:01:04;1.97;;;1.53;;
71366;SDS011;60030;52.274;8.040;2022-12-29T03:03:46;2.37;;;1.50;;
71366;SDS011;60030;52.274;8.040;2022-12-29T03:06:27;1.40;;;1.30;;
71366;SDS011;60030;52.274;8.040;2022-12-29T03:09:02;3.00;;;1.50;;
71366;SDS011;60030;52.274;8.040;2022-12-29T03:11:39;1.50;;;1.10;;
71366;SDS011;60030;52.274;8.040;2022-12-29T03:14:32;1.10;;;1.00;;
71366;SDS011;60030;52.274;8.040;2022-12-29T03:17:23;0.83;;;0.83;;
71366;SDS011;60030;52.274;8.040;2022-12-29T03:19:57;1.23;;;0.80;;
71366;SDS011;60030;52.274;8.040;2022-12-29T03:22:29;0.90;;;0.90;;
71366;SDS011;60030;52.274;8.040;2022-12-29T03:25:05;1.00;;;0.80;;
71366;SDS011;60030;52.274;8.040;2022-12-29T03:27:37;0.80;;;0.80;;
71366;SDS011;60030;52.274;8.040;2022-12-29T03:30:07;0.60;;;0.60;;
71366;SDS011;60030;52.274;8.040;2022-12-29T03:32:38;0.90;;;0.70;;
71366;SDS011;60030;52.274;8.040;2022-12-29T03:35:12;3.30;;;0.60;;
71366;SDS011;60030;52.274;8.040;2022-12-29T03:37:42;0.70;;;0.70;;
71366;SDS011;60030;52.274;8.040;2022-12-29T03:40:16;1.37;;;0.93;;
71366;SDS011;60030;52.274;8.040;2022-12-29T03:42:45;0.90;;;0.63;;
71366;SDS011;60030;52.274;8.040;2022-12-29T03:45:13;1.50;;;0.70;;
71366;SDS011;60030;52.274;8.040;2022-12-29T03:47:40;0.67;;;0.60;;
71366;SDS011;60030;52.274;8.040;2022-12-29T03:50:07;0.83;;;0.60;;
71366;SDS011;60030;52.274;8.040;2022-12-29T03:52:40;0.90;;;0.60;;
71366;SDS011;60030;52.274;8.040;2022-12-29T03:55:07;0.80;;;0.50;;
71366;SDS011;60030;52.274;8.040;2022-12-29T03:57:34;1.50;;;0.57;;
71366;SDS011;60030;52.274;8.040;2022-12-29T04:00:06;0.50;;;0.50;;
71366;SDS011;60030;52.274;8.040;2022-12-29T04:02:49;1.03;;;0.47;;
71366;SDS011;60030;52.274;8.040;2022-12-29T04:05:22;1.13;;;0.60;;
71366;SDS011;60030;52.274;8.040;2022-12-29T04:07:54;1.97;;;0.50;;
71366;SDS011;60030;52.274;8.040;2022-12-29T04:10:22;1.70;;;0.70;;
71366;SDS011;60030;52.274;8.040;2022-12-29T04:12:54;1.43;;;0.47;;
71366;SDS011;60030;52.274;8.040;2022-12-29T04:15:22;1.07;;;0.77;;
71366;SDS011;60030;52.274;8.040;2022-12-29T04:17:49;1.03;;;0.67;;
71366;SDS011;60030;52.274;8.040;2022-12-29T04:20:16;1.30;;;0.70;;
71366;SDS011;60030;52.274;8.040;2022-12-29T04:23:06;0.47;;;0.47;;
71366;SDS011;60030;52.274;8.040;2022-12-29T04:25:34;3.90;;;1.37;;
71366;SDS011;60030;52.274;8.040;2022-12-29T04:28:02;1.47;;;0.90;;
71366;SDS011;60030;52.274;8.040;2022-12-29T04:30:48;3.70;;;2.47;;
71366;SDS011;60030;52.274;8.040;2022-12-29T04:33:28;0.70;;;0.67;;
71366;SDS011;60030;52.274;8.040;2022-12-29T04:35:57;4.80;;;1.00;;
71366;SDS011;60030;52.274;8.040;2022-12-29T04:38:25;1.70;;;0.80;;
71366;SDS011;60030;52.274;8.040;2022-12-29T04:40:53;1.60;;;1.17;;
71366;SDS011;60030;52.274;8.040;2022-12-29T04:43:22;0.90;;;0.90;;
71366;SDS011;60030;52.274;8.040;2022-12-29T04:46:08;1.70;;;0.60;;
71366;SDS011;60030;52.274;8.040;2022-12-29T04:48:53;1.67;;;0.83;;
71366;SDS011;60030;52.274;8.040;2022-12-29T04:51:43;0.93;;;0.60;;
71366;SDS011;60030;52.274;8.040;2022-12-29T04:54:13;1.00;;;0.70;;
71366;SDS011;60030;52.274;8.040;2022-12-29T04:56:43;1.23;;;0.80;;
71366;SDS011;60030;52.274;8.040;2022-12-29T04:59:13;2.40;;;0.63;;
71366;SDS011;60030;52.274;8.040;2022-12-29T05:01:41;1.63;;;0.60;;
71366;SDS011;60030;52.274;8.040;2022-12-29T05:04:09;0.77;;;0.50;;
71366;SDS011;60030;52.274;8.040;2022-12-29T05:06:37;0.77;;;0.53;;
71366;SDS011;60030;52.274;8.040;2022-12-29T05:09:04;0.90;;;0.50;;
71366;SDS011;60030;52.274;8.040;2022-12-29T05:11:34;1.90;;;0.70;;
71366;SDS011;60030;52.274;8.040;2022-12-29T05:14:01;2.20;;;0.73;;
71366;SDS011;60030;52.274;8.040;2022-12-29T05:16:28;1.33;;;0.63;;
71366;SDS011;60030;52.274;8.040;2022-12-29T05:18:56;0.70;;;0.60;;
71366;SDS011;60030;52.274;8.040;2022-12-29T05:21:24;0.60;;;0.60;;
71366;SDS011;60030;52.274;8.040;2022-12-29T05:23:51;1.60;;;0.60;;
71366;SDS011;60030;52.274;8.040;2022-12-29T05:26:18;0.90;;;0.50;;
71366;SDS011;60030;52.274;8.040;2022-12-29T05:29:02;1.37;;;0.40;;
71366;SDS011;60030;52.274;8.040;2022-12-29T05:31:29;1.20;;;0.70;;
71366;SDS011;60030;52.274;8.040;2022-12-29T05:33:56;1.40;;;0.60;;
71366;SDS011;60030;52.274;8.040;2022-12-29T05:36:24;0.60;;;0.47;;
71366;SDS011;60030;52.274;8.040;2022-12-29T05:38:54;1.70;;;0.60;;
71366;SDS011;60030;52.274;8.040;2022-12-29T05:41:22;1.30;;;0.60;;
71366;SDS011;60030;52.274;8.040;2022-12-29T05:43:58;1.40;;;0.57;;
71366;SDS011;60030;52.274;8.040;2022-12-29T05:46:27;0.60;;;0.53;;
71366;SDS011;60030;52.274;8.040;2022-12-29T05:49:06;0.60;;;0.50;;
71366;SDS011;60030;52.274;8.040;2022-12-29T05:51:42;1.00;;;0.60;;
71366;SDS011;60030;52.274;8.040;2022-12-29T05:54:09;1.87;;;0.50;;
71366;SDS011;60030;52.274;8.040;2022-12-29T05:56:36;1.57;;;0.57;;
71366;SDS011;60030;52.274;8.040;2022-12-29T05:59:03;0.80;;;0.40;;
71366;SDS011;60030;52.274;8.040;2022-12-29T06:01:32;1.73;;;0.60;;
71366;SDS011;60030;52.274;8.040;2022-12-29T06:03:59;4.27;;;0.60;;
71366;SDS011;60030;52.274;8.040;2022-12-29T06:06:27;0.33;;;0.33;;
71366;SDS011;60030;52.274;8.040;2022-12-29T06:08:54;1.50;;;0.50;;
71366;SDS011;60030;52.274;8.040;2022-12-29T06:11:21;0.53;;;0.30;;
71366;SDS011;60030;52.274;8.040;2022-12-29T06:13:52;2.50;;;0.40;;
71366;SDS011;60030;52.274;8.040;2022-12-29T06:16:19;0.27;;;0.27;;
71366;SDS011;60030;52.274;8.040;2022-12-29T06:18:50;0.63;;;0.47;;
71366;SDS011;60030;52.274;8.040;2022-12-29T06:21:17;0.37;;;0.30;;
71366;SDS011;60030;52.274;8.040;2022-12-29T06:23:45;0.97;;;0.20;;
71366;SDS011;60030;52.274;8.040;2022-12-29T06:26:12;2.03;;;0.30;;
71366;SDS011;60030;52.274;8.040;2022-12-29T06:28:39;0.67;;;0.23;;
71366;SDS011;60030;52.274;8.040;2022-12-29T06:31:08;1.77;;;0.30;;
71366;SDS011;60030;52.274;8.040;2022-12-29T06:33:36;1.40;;;0.40;;
71366;SDS011;60030;52.274;8.040;2022-12-29T06:36:05;2.87;;;0.47;;
71366;SDS011;60030;52.274;8.040;2022-12-29T06:38:32;1.27;;;0.30;;
71366;SDS011;60030;52.274;8.040;2022-12-29T06:41:00;0.37;;;0.27;;
71366;SDS011;60030;52.274;8.040;2022-12-29T06:43:36;2.73;;;0.40;;
71366;SDS011;60030;52.274;8.040;2022-12-29T06:46:08;0.40;;;0.40;;
71366;SDS011;60030;52.274;8.040;2022-12-29T06:48:35;1.93;;;0.60;;
71366;SDS011;60030;52.274;8.040;2022-12-29T06:51:02;2.37;;;0.60;;
71366;SDS011;60030;52.274;8.040;2022-12-29T06:53:31;0.70;;;0.30;;
71366;SDS011;60030;52.274;8.040;2022-12-29T06:55:58;2.57;;;0.53;;
71366;SDS011;60030;52.274;8.040;2022-12-29T06:58:25;2.57;;;0.53;;
71366;SDS011;60030;52.274;8.040;2022-12-29T07:00:52;2.87;;;0.70;;
71366;SDS011;60030;52.274;8.040;2022-12-29T07:03:19;3.70;;;0.87;;
71366;SDS011;60030;52.274;8.040;2022-12-29T07:05:46;3.23;;;0.63;;
71366;SDS011;60030;52.274;8.040;2022-12-29T07:08:14;1.17;;;0.40;;
71366;SDS011;60030;52.274;8.040;2022-12-29T07:10:41;1.10;;;0.40;;
71366;SDS011;60030;52.274;8.040;2022-12-29T07:13:08;2.73;;;0.80;;
71366;SDS011;60030;52.274;8.040;2022-12-29T07:15:36;2.80;;;0.47;;
71366;SDS011;60030;52.274;8.040;2022-12-29T07:18:03;2.77;;;0.80;;
71366;SDS011;60030;52.274;8.040;2022-12-29T07:20:31;3.80;;;0.70;;
71366;SDS011;60030;52.274;8.040;2022-12-29T07:22:58;2.40;;;0.97;;
71366;SDS011;60030;52.274;8.040;2022-12-29T07:25:27;1.93;;;0.57;;
71366;SDS011;60030;52.274;8.040;2022-12-29T07:27:54;2.83;;;1.00;;
71366;SDS011;60030;52.274;8.040;2022-12-29T07:30:21;4.73;;;0.73;;
71366;SDS011;60030;52.274;8.040;2022-12-29T07:32:48;1.23;;;0.63;;
71366;SDS011;60030;52.274;8.040;2022-12-29T07:35:15;3.97;;;0.73;;
71366;SDS011;60030;52.274;8.040;2022-12-29T07:37:43;7.10;;;0.63;;
71366;SDS011;60030;52.274;8.040;2022-12-29T07:40:10;2.80;;;0.80;;
71366;SDS011;60030;52.274;8.040;2022-12-29T07:42:39;3.60;;;0.67;;
71366;SDS011;60030;52.274;8.040;2022-12-29T07:45:08;2.53;;;0.60;;
71366;SDS011;60030;52.274;8.040;2022-12-29T07:47:47;5.03;;;1.17;;
71366;SDS011;60030;52.274;8.040;2022-12-29T07:50:14;2.47;;;0.70;;
71366;SDS011;60030;52.274;8.040;2022-12-29T07:52:42;2.37;;;0.70;;
71366;SDS011;60030;52.274;8.040;2022-12-29T07:55:10;2.23;;;0.53;;
71366;SDS011;60030;52.274;8.040;2022-12-29T07:57:38;3.00;;;0.87;;
71366;SDS011;60030;52.274;8.040;2022-12-29T08:00:05;3.33;;;0.70;;
71366;SDS011;60030;52.274;8.040;2022-12-29T08:02:37;4.57;;;0.70;;
71366;SDS011;60030;52.274;8.040;2022-12-29T08:05:04;2.20;;;0.83;;
71366;SDS011;60030;52.274;8.040;2022-12-29T08:07:32;1.93;;;0.60;;
71366;SDS011;60030;52.274;8.040;2022-12-29T08:09:59;2.20;;;0.60;;
71366;SDS011;60030;52.274;8.040;2022-12-29T08:12:26;3.43;;;0.80;;
71366;SDS011;60030;52.274;8.040;2022-12-29T08:14:55;1.80;;;0.67;;
71366;SDS011;60030;52.274;8.040;2022-12-29T08:17:22;5.63;;;0.70;;
71366;SDS011;60030;52.274;8.040;2022-12-29T08:19:49;2.10;;;0.57;;
71366;SDS011;60030;52.274;8.040;2022-12-29T08:22:16;4.10;;;0.70;;
71366;SDS011;60030;52.274;8.040;2022-12-29T08:24:43;3.40;;;0.77;;
71366;SDS011;60030;52.274;8.040;2022-12-29T08:27:10;5.47;;;0.80;;
71366;SDS011;60030;52.274;8.040;2022-12-29T08:29:37;4.63;;;0.80;;
71366;SDS011;60030;52.274;8.040;2022-12-29T08:32:06;3.37;;;1.00;;
71366;SDS011;60030;52.274;8.040;2022-12-29T08:34:33;2.57;;;0.70;;
71366;SDS011;60030;52.274;8.040;2022-12-29T08:37:00;5.57;;;0.90;;
71366;SDS011;60030;52.274;8.040;2022-12-29T08:39:27;4.53;;;0.73;;
71366;SDS011;60030;52.274;8.040;2022-12-29T08:41:54;3.27;;;1.07;;
71366;SDS011;60030;52.274;8.040;2022-12-29T08:44:22;3.83;;;1.10;;
71366;SDS011;60030;52.274;8.040;2022-12-29T08:46:49;2.33;;;0.60;;
71366;SDS011;60030;52.274;8.040;2022-12-29T08:49:17;6.90;;;0.83;;
71366;SDS011;60030;52.274;8.040;2022-12-29T08:51:44;1.93;;;0.57;;
71366;SDS011;60030;52.274;8.040;2022-12-29T08:54:11;3.27;;;0.70;;
71366;SDS011;60030;52.274;8.040;2022-12-29T08:56:39;2.93;;;0.80;;
71366;SDS011;60030;52.274;8.040;2022-12-29T08:59:06;2.07;;;0.73;;
71366;SDS011;60030;52.274;8.040;2022-12-29T09:01:33;3.43;;;0.90;;
71366;SDS011;60030;52.274;8.040;2022-12-29T09:04:01;3.03;;;1.10;;
71366;SDS011;60030;52.274;8.040;2022-12-29T09:06:30;4.83;;;1.07;;
71366;SDS011;60030;52.274;8.040;2022-12-29T09:08:57;2.17;;;0.70;;
71366;SDS011;60030;52.274;8.040;2022-12-29T09:11:24;5.30;;;0.97;;
71366;SDS011;60030;52.274;8.040;2022-12-29T09:13:52;2.80;;;0.80;;
71366;SDS011;60030;52.274;8.040;2022-12-29T09:16:20;3.67;;;0.87;;
71366;SDS011;60030;52.274;8.040;2022-12-29T09:18:48;3.83;;;0.53;;
71366;SDS011;60030;52.274;8.040;2022-12-29T09:21:16;3.70;;;0.77;;
71366;SDS011;60030;52.274;8.040;2022-12-29T09:23:45;1.70;;;0.50;;
71366;SDS011;60030;52.274;8.040;2022-12-29T09:26:12;4.93;;;0.80;;
71366;SDS011;60030;52.274;8.040;2022-12-29T09:28:39;4.40;;;1.30;;
71366;SDS011;60030;52.274;8.040;2022-12-29T09:31:06;2.60;;;0.57;;
71366;SDS011;60030;52.274;8.040;2022-12-29T09:33:34;4.87;;;2.83;;
71366;SDS011;60030;52.274;8.040;2022-12-29T09:36:01;3.03;;;0.97;;
71366;SDS011;60030;52.274;8.040;2022-12-29T09:38:29;3.13;;;0.70;;
71366;SDS011;60030;52.274;8.040;2022-12-29T09:40:59;3.83;;;0.73;;
71366;SDS011;60030;52.274;8.040;2022-12-29T09:43:43;4.07;;;0.80;;
71366;SDS011;60030;52.274;8.040;2022-12-29T09:46:21;4.27;;;0.70;;
71366;SDS011;60030;52.274;8.040;2022-12-29T09:48:53;5.60;;;1.17;;
71366;SDS011;60030;52.274;8.040;2022-12-29T09:51:28;5.80;;;0.80;;
71366;SDS011;60030;52.274;8.040;2022-12-29T09:53:58;3.43;;;1.10;;
71366;SDS011;60030;52.274;8.040;2022-12-29T09:56:31;4.00;;;0.80;;
71366;SDS011;60030;52.274;8.040;2022-12-29T09:58:59;3.70;;;0.93;;
71366;SDS011;60030;52.274;8.040;2022-12-29T10:01:31;7.00;;;1.10;;
71366;SDS011;60030;52.274;8.040;2022-12-29T10:04:04;2.50;;;1.27;;
71366;SDS011;60030;52.274;8.040;2022-12-29T10:06:33;2.00;;;0.70;;
71366;SDS011;60030;52.274;8.040;2022-12-29T10:09:11;3.07;;;0.93;;
71366;SDS011;60030;52.274;8.040;2022-12-29T10:11:52;3.03;;;0.87;;
71366;SDS011;60030;52.274;8.040;2022-12-29T10:17:20;4.83;;;0.90;;
71366;SDS011;60030;52.274;8.040;2022-12-29T10:19:55;4.20;;;1.07;;
71366;SDS011;60030;52.274;8.040;2022-12-29T10:22:38;4.77;;;1.00;;
71366;SDS011;60030;52.274;8.040;2022-12-29T10:25:12;2.57;;;0.70;;
71366;SDS011;60030;52.274;8.040;2022-12-29T10:27:45;5.13;;;0.90;;
71366;SDS011;60030;52.274;8.040;2022-12-29T10:30:14;5.63;;;0.93;;
71366;SDS011;60030;52.274;8.040;2022-12-29T10:32:45;3.87;;;0.90;;
71366;SDS011;60030;52.274;8.040;2022-12-29T10:35:17;4.50;;;1.20;;
71366;SDS011;60030;52.274;8.040;2022-12-29T10:37:47;3.83;;;1.00;;
71366;SDS011;60030;52.274;8.040;2022-12-29T10:40:21;3.03;;;0.60;;
71366;SDS011;60030;52.274;8.040;2022-12-29T10:42:54;7.30;;;1.10;;
71366;SDS011;60030;52.274;8.040;2022-12-29T10:45:24;4.77;;;1.00;;
71366;SDS011;60030;52.274;8.040;2022-12-29T10:47:55;3.90;;;0.90;;
71366;SDS011;60030;52.274;8.040;2022-12-29T10:50:26;4.67;;;1.33;;
71366;SDS011;60030;52.274;8.040;2022-12-29T10:52:55;6.97;;;1.30;;
71366;SDS011;60030;52.274;8.040;2022-12-29T10:55:27;4.17;;;0.90;;
71366;SDS011;60030;52.274;8.040;2022-12-29T10:58:00;4.13;;;0.97;;
71366;SDS011;60030;52.274;8.040;2022-12-29T11:00:31;5.17;;;1.30;;
71366;SDS011;60030;52.274;8.040;2022-12-29T11:05:57;4.20;;;1.33;;
71366;SDS011;60030;52.274;8.040;2022-12-29T11:08:29;3.27;;;1.00;;
71366;SDS011;60030;52.274;8.040;2022-12-29T11:11:08;3.47;;;1.10;;
71366;SDS011;60030;52.274;8.040;2022-12-29T11:13:50;3.03;;;0.80;;
71366;SDS011;60030;52.274;8.040;2022-12-29T11:16:26;4.30;;;1.00;;
71366;SDS011;60030;52.274;8.040;2022-12-29T11:18:56;6.00;;;1.07;;
71366;SDS011;60030;52.274;8.040;2022-12-29T11:21:26;4.20;;;0.70;;
71366;SDS011;60030;52.274;8.040;2022-12-29T11:23:57;3.17;;;1.07;;
71366;SDS011;60030;52.274;8.040;2022-12-29T11:26:25;2.33;;;0.70;;
71366;SDS011;60030;52.274;8.040;2022-12-29T11:31:53;5.03;;;1.03;;
71366;SDS011;60030;52.274;8.040;2022-12-29T11:34:23;4.90;;;1.13;;
71366;SDS011;60030;52.274;8.040;2022-12-29T11:36:52;4.73;;;1.13;;
71366;SDS011;60030;52.274;8.040;2022-12-29T11:39:26;3.23;;;1.00;;
71366;SDS011;60030;52.274;8.040;2022-12-29T11:41:57;6.57;;;1.50;;
71366;SDS011;60030;52.274;8.040;2022-12-29T11:44:27;3.70;;;1.00;;
71366;SDS011;60030;52.274;8.040;2022-12-29T11:47:02;4.93;;;0.90;;
71366;SDS011;60030;52.274;8.040;2022-12-29T11:49:30;3.70;;;1.10;;
71366;SDS011;60030;52.274;8.040;2022-12-29T11:51:57;3.10;;;0.87;;
71366;SDS011;60030;52.274;8.040;2022-12-29T11:54:25;5.00;;;1.10;;
71366;SDS011;60030;52.274;8.040;2022-12-29T11:56:56;5.57;;;1.20;;
71366;SDS011;60030;52.274;8.040;2022-12-29T11:59:36;2.90;;;1.00;;
71366;SDS011;60030;52.274;8.040;2022-12-29T12:05:02;2.40;;;0.80;;
71366;SDS011;60030;52.274;8.040;2022-12-29T12:07:37;3.80;;;1.00;;
71366;SDS011;60030;52.274;8.040;2022-12-29T12:10:11;3.77;;;0.90;;
71366;SDS011;60030;52.274;8.040;2022-12-29T12:12:47;4.30;;;1.17;;
71366;SDS011;60030;52.274;8.040;2022-12-29T12:15:23;3.50;;;0.80;;
71366;SDS011;60030;52.274;8.040;2022-12-29T12:17:57;2.73;;;0.77;;
71366;SDS011;60030;52.274;8.040;2022-12-29T12:20:32;2.53;;;0.90;;
71366;SDS011;60030;52.274;8.040;2022-12-29T12:23:12;2.30;;;0.53;;
71366;SDS011;60030;52.274;8.040;2022-12-29T12:25:49;1.63;;;0.60;;
71366;SDS011;60030;52.274;8.040;2022-12-29T12:28:24;4.67;;;1.10;;
71366;SDS011;60030;52.274;8.040;2022-12-29T12:30:56;3.67;;;0.87;;
71366;SDS011;60030;52.274;8.040;2022-12-29T12:33:27;2.67;;;0.70;;
71366;SDS011;60030;52.274;8.040;2022-12-29T12:36:04;4.97;;;1.10;;
71366;SDS011;60030;52.274;8.040;2022-12-29T12:38:43;4.37;;;0.90;;
71366;SDS011;60030;52.274;8.040;2022-12-29T12:41:20;3.23;;;0.90;;
71366;SDS011;60030;52.274;8.040;2022-12-29T12:43:54;5.10;;;0.73;;
71366;SDS011;60030;52.274;8.040;2022-12-29T12:46:38;5.30;;;0.83;;
71366;SDS011;60030;52.274;8.040;2022-12-29T12:49:29;4.60;;;0.97;;
71366;SDS011;60030;52.274;8.040;2022-12-29T12:52:22;4.10;;;0.90;;
71366;SDS011;60030;52.274;8.040;2022-12-29T12:55:02;7.07;;;0.97;;
71366;SDS011;60030;52.274;8.040;2022-12-29T12:57:46;3.33;;;0.83;;
71366;SDS011;60030;52.274;8.040;2022-12-29T13:00:19;3.27;;;0.83;;
71366;SDS011;60030;52.274;8.040;2022-12-29T13:02:54;3.80;;;0.87;;
71366;SDS011;60030;52.274;8.040;2022-12-29T13:05:35;3.63;;;0.87;;
71366;SDS011;60030;52.274;8.040;2022-12-29T13:08:23;2.90;;;1.20;;
71366;SDS011;60030;52.274;8.040;2022-12-29T13:11:02;4.07;;;0.73;;
71366;SDS011;60030;52.274;8.040;2022-12-29T13:13:45;4.17;;;0.90;;
71366;SDS011;60030;52.274;8.040;2022-12-29T13:16:21;4.07;;;0.90;;
71366;SDS011;60030;52.274;8.040;2022-12-29T13:18:58;1.93;;;1.00;;
71366;SDS011;60030;52.274;8.040;2022-12-29T13:21:33;3.03;;;1.10;;
71366;SDS011;60030;52.274;8.040;2022-12-29T13:24:12;3.47;;;1.00;;
71366;SDS011;60030;52.274;8.040;2022-12-29T13:26:44;4.17;;;0.83;;
71366;SDS011;60030;52.274;8.040;2022-12-29T13:29:15;4.90;;;1.00;;
71366;SDS011;60030;52.274;8.040;2022-12-29T13:31:49;4.13;;;0.87;;
71366;SDS011;60030;52.274;8.040;2022-12-29T13:34:27;5.20;;;0.93;;
71366;SDS011;60030;52.274;8.040;2022-12-29T13:37:03;4.63;;;1.40;;
71366;SDS011;60030;52.274;8.040;2022-12-29T13:39:36;5.60;;;0.87;;
71366;SDS011;60030;52.274;8.040;2022-12-29T13:42:05;2.63;;;1.10;;
71366;SDS011;60030;52.274;8.040;2022-12-29T13:44:34;4.90;;;1.10;;
71366;SDS011;60030;52.274;8.040;2022-12-29T13:47:06;3.20;;;1.17;;
71366;SDS011;60030;52.274;8.040;2022-12-29T13:49:47;3.07;;;1.00;;
71366;SDS011;60030;52.274;8.040;2022-12-29T13:52:20;4.20;;;1.30;;
71366;SDS011;60030;52.274;8.040;2022-12-29T13:54:55;4.27;;;1.00;;
71366;SDS011;60030;52.274;8.040;2022-12-29T13:57:31;5.57;;;1.50;;
71366;SDS011;60030;52.274;8.040;2022-12-29T14:00:11;2.53;;;1.00;;
71366;SDS011;60030;52.274;8.040;2022-12-29T14:02:45;5.97;;;1.57;;
71366;SDS011;60030;52.274;8.040;2022-12-29T14:05:29;5.67;;;1.63;;
71366;SDS011;60030;52.274;8.040;2022-12-29T14:07:58;3.63;;;1.40;;
71366;SDS011;60030;52.274;8.040;2022-12-29T14:10:27;3.03;;;0.93;;
71366;SDS011;60030;52.274;8.040;2022-12-29T14:13:03;6.57;;;1.23;;
71366;SDS011;60030;52.274;8.040;2022-12-29T14:15:32;3.67;;;1.47;;
71366;SDS011;60030;52.274;8.040;2022-12-29T14:18:02;4.47;;;0.90;;
71366;SDS011;60030;52.274;8.040;2022-12-29T14:20:33;4.13;;;1.40;;
71366;SDS011;60030;52.274;8.040;2022-12-29T14:23:01;6.23;;;1.30;;
71366;SDS011;60030;52.274;8.040;2022-12-29T14:28:42;3.50;;;1.27;;
71366;SDS011;60030;52.274;8.040;2022-12-29T14:37:17;5.07;;;1.30;;
71366;SDS011;60030;52.274;8.040;2022-12-29T14:39:54;4.60;;;1.40;;
71366;SDS011;60030;52.274;8.040;2022-12-29T14:42:29;8.53;;;1.53;;
71366;SDS011;60030;52.274;8.040;2022-12-29T14:45:00;6.77;;;1.40;;
71366;SDS011;60030;52.274;8.040;2022-12-29T14:47:32;4.70;;;1.47;;
71366;SDS011;60030;52.274;8.040;2022-12-29T14:50:03;5.23;;;1.10;;
71366;SDS011;60030;52.274;8.040;2022-12-29T14:52:45;5.77;;;1.60;;
71366;SDS011;60030;52.274;8.040;2022-12-29T14:55:32;4.30;;;1.20;;
71366;SDS011;60030;52.274;8.040;2022-12-29T14:58:05;3.53;;;1.17;;
71366;SDS011;60030;52.274;8.040;2022-12-29T15:00:38;4.57;;;1.43;;
71366;SDS011;60030;52.274;8.040;2022-12-29T15:03:07;5.17;;;1.13;;
71366;SDS011;60030;52.274;8.040;2022-12-29T15:05:42;5.90;;;1.50;;
71366;SDS011;60030;52.274;8.040;2022-12-29T15:08:16;6.87;;;1.40;;
71366;SDS011;60030;52.274;8.040;2022-12-29T15:10:45;7.67;;;1.73;;
71366;SDS011;60030;52.274;8.040;2022-12-29T15:13:20;4.40;;;1.40;;
71366;SDS011;60030;52.274;8.040;2022-12-29T15:15:48;8.40;;;1.37;;
71366;SDS011;60030;52.274;8.040;2022-12-29T15:18:23;5.80;;;1.47;;
71366;SDS011;60030;52.274;8.040;2022-12-29T15:20:53;6.53;;;1.50;;
71366;SDS011;60030;52.274;8.040;2022-12-29T15:23:24;6.80;;;1.47;;
71366;SDS011;60030;52.274;8.040;2022-12-29T15:25:53;5.87;;;1.50;;
71366;SDS011;60030;52.274;8.040;2022-12-29T15:28:23;8.13;;;1.57;;
71366;SDS011;60030;52.274;8.040;2022-12-29T15:30:52;8.93;;;2.53;;
71366;SDS011;60030;52.274;8.040;2022-12-29T15:33:21;3.87;;;1.60;;
71366;SDS011;60030;52.274;8.040;2022-12-29T15:35:49;6.70;;;1.97;;
71366;SDS011;60030;52.274;8.040;2022-12-29T15:38:20;4.27;;;1.53;;
71366;SDS011;60030;52.274;8.040;2022-12-29T15:40:53;3.07;;;1.20;;